createdAt,value
2019-03-20T00:00:31.774Z,967.12
2019-03-20T00:01:31.757Z,967.12
2019-03-20T00:02:31.741Z,967.14
2019-03-20T00:03:31.723Z,967.17
2019-03-20T00:04:31.704Z,967.18
2019-03-20T00:05:31.688Z,967.14
2019-03-20T00:06:31.823Z,967.2
2019-03-20T00:07:31.651Z,967.17
2019-03-20T00:08:31.633Z,967.18
2019-03-20T00:09:31.617Z,967.18
2019-03-20T00:10:31.599Z,967.17
2019-03-20T00:16:54.163Z,967.19
2019-03-20T00:22:23.589Z,967.27
2019-03-20T00:23:23.574Z,967.25
2019-03-20T00:24:23.553Z,967.24
2019-03-20T00:25:23.534Z,967.23
2019-03-20T00:26:23.519Z,967.28
2019-03-20T00:27:23.502Z,967.26
2019-03-20T00:28:23.483Z,967.26
2019-03-20T00:29:23.466Z,967.28
2019-03-20T00:30:23.447Z,967.24
2019-03-20T00:31:23.429Z,967.23
2019-03-20T00:32:23.412Z,967.24
2019-03-20T00:33:23.394Z,967.26
2019-03-20T00:34:23.390Z,967.22
2019-03-20T00:35:23.359Z,967.25
2019-03-20T00:36:23.340Z,967.25
2019-03-20T00:37:23.324Z,967.27
2019-03-20T00:38:23.305Z,967.26
2019-03-20T00:39:23.287Z,967.28
2019-03-20T00:40:23.271Z,967.29
2019-03-20T00:41:23.252Z,967.25
2019-03-20T00:42:23.235Z,967.23
2019-03-20T00:43:23.216Z,967.24
2019-03-20T00:44:23.198Z,967.25
2019-03-20T00:45:23.182Z,967.24
2019-03-20T00:46:23.167Z,967.21
2019-03-20T00:47:23.146Z,967.26
2019-03-20T00:48:23.129Z,967.28
2019-03-20T00:49:23.111Z,967.28
2019-03-20T00:50:23.093Z,967.28
2019-03-20T00:51:23.074Z,967.27
2019-03-20T00:52:23.057Z,967.24
2019-03-20T00:53:23.040Z,967.25
2019-03-20T00:54:23.020Z,967.28
2019-03-20T00:55:23.003Z,967.22
2019-03-20T00:56:22.985Z,967.22
2019-03-20T00:57:22.967Z,967.2
2019-03-20T00:58:22.949Z,967.21
2019-03-20T00:59:22.932Z,967.21
2019-03-20T01:00:22.920Z,967.23
2019-03-20T01:01:22.896Z,967.19
2019-03-20T01:02:22.879Z,967.2
2019-03-20T01:03:22.861Z,967.21
2019-03-20T01:04:22.842Z,967.24
2019-03-20T01:05:22.826Z,967.24
2019-03-20T01:06:22.806Z,967.21
2019-03-20T01:07:22.788Z,967.24
2019-03-20T01:08:22.771Z,967.24
2019-03-20T01:09:22.753Z,967.28
2019-03-20T01:10:22.735Z,967.25
2019-03-20T01:11:22.717Z,967.23
2019-03-20T01:12:22.698Z,967.2
2019-03-20T01:13:22.679Z,967.23
2019-03-20T01:14:22.666Z,967.25
2019-03-20T01:15:22.644Z,967.21
2019-03-20T01:16:22.627Z,967.22
2019-03-20T01:17:22.614Z,967.21
2019-03-20T01:18:22.659Z,967.22
2019-03-20T01:19:22.573Z,967.26
2019-03-20T01:20:22.552Z,967.24
2019-03-20T01:21:22.534Z,967.23
2019-03-20T01:22:22.523Z,967.26
2019-03-20T01:23:22.497Z,967.19
2019-03-20T01:24:22.479Z,967.19
2019-03-20T01:25:22.462Z,967.2
2019-03-20T01:26:22.446Z,967.2
2019-03-20T01:27:22.425Z,967.22
2019-03-20T01:28:22.406Z,967.21
2019-03-20T01:29:22.390Z,967.21
2019-03-20T01:30:22.370Z,967.25
2019-03-20T01:31:22.352Z,967.24
2019-03-20T01:32:22.333Z,967.25
2019-03-20T01:33:22.315Z,967.26
2019-03-20T01:34:22.296Z,967.25
2019-03-20T01:35:23.919Z,967.24
2019-03-20T01:36:22.262Z,967.21
2019-03-20T01:37:22.242Z,967.25
2019-03-20T01:38:22.227Z,967.28
2019-03-20T01:39:22.204Z,967.26
2019-03-20T01:40:22.187Z,967.25
2019-03-20T01:41:22.168Z,967.3
2019-03-20T01:42:22.150Z,967.29
2019-03-20T01:43:22.132Z,967.32
2019-03-20T01:44:22.112Z,967.34
2019-03-20T01:45:22.094Z,967.33
2019-03-20T01:46:22.076Z,967.32
2019-03-20T01:47:22.059Z,967.26
2019-03-20T01:48:22.041Z,967.29
2019-03-20T01:49:22.019Z,967.29
2019-03-20T01:50:22.002Z,967.33
2019-03-20T01:51:21.982Z,967.3
2019-03-20T01:52:21.964Z,967.3
2019-03-20T01:53:21.944Z,967.26
2019-03-20T01:54:21.926Z,967.25
2019-03-20T01:55:21.909Z,967.25
2019-03-20T01:56:21.891Z,967.26
2019-03-20T01:57:21.873Z,967.28
2019-03-20T01:58:21.851Z,967.28
2019-03-20T01:59:21.833Z,967.22
2019-03-20T02:00:21.814Z,967.24
2019-03-20T02:01:21.794Z,967.26
2019-03-20T02:02:21.777Z,967.22
2019-03-20T02:03:21.756Z,967.28
2019-03-20T02:04:21.738Z,967.24
2019-03-20T02:05:21.723Z,967.26
2019-03-20T02:06:21.712Z,967.27
2019-03-20T02:07:21.681Z,967.25
2019-03-20T02:08:21.663Z,967.28
2019-03-20T02:09:21.645Z,967.31
2019-03-20T02:10:21.626Z,967.27
2019-03-20T02:11:21.605Z,967.27
2019-03-20T02:12:21.591Z,967.32
2019-03-20T02:13:21.568Z,967.32
2019-03-20T02:14:21.548Z,967.32
2019-03-20T02:15:21.529Z,967.3
2019-03-20T02:16:21.513Z,967.29
2019-03-20T02:17:21.492Z,967.31
2019-03-20T02:18:21.472Z,967.34
2019-03-20T02:19:21.454Z,967.33
2019-03-20T02:20:21.441Z,967.36
2019-03-20T02:21:21.416Z,967.31
2019-03-20T02:22:21.398Z,967.39
2019-03-20T02:23:21.378Z,967.37
2019-03-20T02:24:21.359Z,967.4
2019-03-20T02:25:21.339Z,967.39
2019-03-20T02:26:21.324Z,967.42
2019-03-20T02:27:21.302Z,967.4
2019-03-20T02:28:21.283Z,967.39
2019-03-20T02:29:21.263Z,967.38
2019-03-20T02:30:21.245Z,967.38
2019-03-20T02:31:21.226Z,967.4
2019-03-20T02:32:21.217Z,967.42
2019-03-20T02:33:21.194Z,967.42
2019-03-20T02:34:21.169Z,967.45
2019-03-20T02:35:21.151Z,967.45
2019-03-20T02:36:21.130Z,967.43
2019-03-20T02:37:21.115Z,967.43
2019-03-20T02:38:21.093Z,967.39
2019-03-20T02:39:21.074Z,967.41
2019-03-20T02:40:21.051Z,967.37
2019-03-20T02:41:21.033Z,967.4
2019-03-20T02:42:21.015Z,967.39
2019-03-20T02:43:20.996Z,967.38
2019-03-20T02:44:20.976Z,967.34
2019-03-20T02:45:20.958Z,967.33
2019-03-20T02:46:20.939Z,967.29
2019-03-20T02:47:20.919Z,967.27
2019-03-20T02:48:20.900Z,967.28
2019-03-20T02:49:20.880Z,967.31
2019-03-20T02:50:20.861Z,967.27
2019-03-20T02:51:20.842Z,967.34
2019-03-20T02:52:20.821Z,967.36
2019-03-20T02:53:20.805Z,967.37
2019-03-20T02:54:20.786Z,967.37
2019-03-20T02:55:20.770Z,967.39
2019-03-20T02:56:20.746Z,967.39
2019-03-20T02:57:20.727Z,967.4
2019-03-20T02:58:20.707Z,967.4
2019-03-20T02:59:20.687Z,967.4
2019-03-20T03:00:20.685Z,967.43
2019-03-20T03:01:20.653Z,967.41
2019-03-20T03:02:20.630Z,967.44
2019-03-20T03:03:20.610Z,967.43
2019-03-20T03:04:20.591Z,967.4
2019-03-20T03:05:20.573Z,967.4
2019-03-20T03:06:20.552Z,967.39
2019-03-20T03:07:20.551Z,967.39
2019-03-20T03:08:20.514Z,967.39
2019-03-20T03:09:20.644Z,967.38
2019-03-20T03:10:20.483Z,967.42
2019-03-20T03:11:20.460Z,967.41
2019-03-20T03:12:20.438Z,967.45
2019-03-20T03:13:20.417Z,967.44
2019-03-20T03:14:20.398Z,967.49
2019-03-20T03:15:20.380Z,967.48
2019-03-20T03:16:20.362Z,967.51
2019-03-20T03:17:20.341Z,967.48
2019-03-20T03:18:20.323Z,967.5
2019-03-20T03:19:20.302Z,967.51
2019-03-20T03:20:20.281Z,967.48
2019-03-20T03:21:20.274Z,967.53
2019-03-20T03:22:20.243Z,967.51
2019-03-20T03:23:20.224Z,967.49
2019-03-20T03:24:20.211Z,967.56
2019-03-20T03:25:20.202Z,967.54
2019-03-20T03:26:20.166Z,967.54
2019-03-20T03:27:20.146Z,967.65
2019-03-20T03:28:20.128Z,967.63
2019-03-20T03:29:20.108Z,967.61
2019-03-20T03:30:20.097Z,967.59
2019-03-20T03:31:20.070Z,967.59
2019-03-20T03:32:20.050Z,967.63
2019-03-20T03:33:20.038Z,967.65
2019-03-20T03:34:20.021Z,967.63
2019-03-20T03:35:20.471Z,967.65
2019-03-20T03:36:21.391Z,967.65
2019-03-20T03:37:19.951Z,967.63
2019-03-20T03:38:19.932Z,967.64
2019-03-20T03:39:19.913Z,967.63
2019-03-20T03:40:19.891Z,967.64
2019-03-20T03:41:19.873Z,967.6
2019-03-20T03:42:19.855Z,967.61
2019-03-20T03:43:19.836Z,967.62
2019-03-20T03:44:19.815Z,967.61
2019-03-20T03:45:19.805Z,967.64
2019-03-20T03:46:19.787Z,967.67
2019-03-20T03:47:19.762Z,967.67
2019-03-20T03:48:19.738Z,967.68
2019-03-20T03:49:19.725Z,967.72
2019-03-20T03:50:19.722Z,967.71
2019-03-20T03:51:19.678Z,967.74
2019-03-20T03:52:19.663Z,967.74
2019-03-20T03:53:19.638Z,967.75
2019-03-20T03:54:19.618Z,967.79
2019-03-20T03:55:19.603Z,967.81
2019-03-20T03:56:19.580Z,967.86
2019-03-20T03:57:19.563Z,967.85
2019-03-20T03:58:19.543Z,967.79
2019-03-20T03:59:19.522Z,967.75
2019-03-20T04:00:19.505Z,967.72
2019-03-20T04:01:19.482Z,967.75
2019-03-20T04:02:19.463Z,967.76
2019-03-20T04:03:19.443Z,967.75
2019-03-20T04:04:19.423Z,967.75
2019-03-20T04:05:19.403Z,967.72
2019-03-20T04:06:19.385Z,967.66
2019-03-20T04:07:19.364Z,967.73
2019-03-20T04:08:19.343Z,967.68
2019-03-20T04:09:19.330Z,967.71
2019-03-20T04:10:19.306Z,967.74
2019-03-20T04:11:19.285Z,967.72
2019-03-20T04:12:19.267Z,967.67
2019-03-20T04:13:19.246Z,967.71
2019-03-20T04:14:19.238Z,967.72
2019-03-20T04:15:19.208Z,967.68
2019-03-20T04:16:19.188Z,967.7
2019-03-20T04:17:19.167Z,967.73
2019-03-20T04:18:19.152Z,967.72
2019-03-20T04:19:19.129Z,967.68
2019-03-20T04:20:19.109Z,967.71
2019-03-20T04:21:19.103Z,967.69
2019-03-20T04:22:19.071Z,967.64
2019-03-20T04:23:19.049Z,967.72
2019-03-20T04:24:19.030Z,967.71
2019-03-20T04:25:19.011Z,967.67
2019-03-20T04:26:18.990Z,967.66
2019-03-20T04:27:18.970Z,967.64
2019-03-20T04:28:18.952Z,967.7
2019-03-20T04:29:18.939Z,967.67
2019-03-20T04:30:18.917Z,967.71
2019-03-20T04:31:18.892Z,967.71
2019-03-20T04:32:18.871Z,967.77
2019-03-20T04:33:18.856Z,967.73
2019-03-20T04:34:18.832Z,967.75
2019-03-20T04:35:18.812Z,967.74
2019-03-20T04:36:18.792Z,967.77
2019-03-20T04:37:18.776Z,967.79
2019-03-20T04:38:18.756Z,967.73
2019-03-20T04:39:18.733Z,967.77
2019-03-20T04:40:18.713Z,967.8
2019-03-20T04:41:18.692Z,967.79
2019-03-20T04:42:18.685Z,967.76
2019-03-20T04:43:18.657Z,967.8
2019-03-20T04:44:18.632Z,967.83
2019-03-20T04:45:18.617Z,967.82
2019-03-20T04:46:18.593Z,967.83
2019-03-20T04:47:18.575Z,967.82
2019-03-20T04:48:18.558Z,967.82
2019-03-20T04:49:18.535Z,967.84
2019-03-20T04:50:18.517Z,967.83
2019-03-20T04:51:18.495Z,967.85
2019-03-20T04:52:18.478Z,967.84
2019-03-20T04:53:18.456Z,967.88
2019-03-20T04:54:18.437Z,967.91
2019-03-20T04:55:18.416Z,967.95
2019-03-20T04:56:18.398Z,967.98
2019-03-20T04:57:18.378Z,967.96
2019-03-20T04:58:18.358Z,967.99
2019-03-20T04:59:18.337Z,968.01
2019-03-20T05:00:18.319Z,968
2019-03-20T05:01:18.298Z,968.03
2019-03-20T05:02:18.277Z,968.05
2019-03-20T05:03:18.258Z,968.03
2019-03-20T05:04:18.238Z,968.05
2019-03-20T05:05:18.220Z,968.04
2019-03-20T05:06:18.198Z,968.05
2019-03-20T05:07:18.178Z,968.08
2019-03-20T05:08:18.159Z,968.04
2019-03-20T05:09:18.140Z,968.06
2019-03-20T05:10:18.120Z,968.03
2019-03-20T05:11:18.099Z,968.03
2019-03-20T05:12:18.081Z,968.04
2019-03-20T05:13:18.059Z,968.02
2019-03-20T05:14:18.040Z,968.09
2019-03-20T05:15:18.021Z,968.11
2019-03-20T05:16:18.001Z,968.08
2019-03-20T05:17:17.981Z,968.07
2019-03-20T05:18:17.960Z,968.11
2019-03-20T05:19:17.940Z,968.15
2019-03-20T05:20:17.923Z,968.17
2019-03-20T05:21:17.901Z,968.15
2019-03-20T05:22:17.882Z,968.15
2019-03-20T05:23:17.862Z,968.2
2019-03-20T05:24:17.841Z,968.22
2019-03-20T05:25:17.820Z,968.2
2019-03-20T05:26:17.803Z,968.25
2019-03-20T05:27:17.783Z,968.23
2019-03-20T05:28:17.761Z,968.28
2019-03-20T05:29:17.741Z,968.27
2019-03-20T05:30:17.721Z,968.31
2019-03-20T05:31:17.703Z,968.31
2019-03-20T05:32:19.617Z,968.29
2019-03-20T05:33:17.664Z,968.3
2019-03-20T05:34:17.644Z,968.31
2019-03-20T05:35:17.624Z,968.34
2019-03-20T05:36:17.603Z,968.39
2019-03-20T05:37:17.583Z,968.38
2019-03-20T05:38:17.563Z,968.46
2019-03-20T05:39:17.544Z,968.47
2019-03-20T05:40:17.562Z,968.45
2019-03-20T05:41:17.503Z,968.5
2019-03-20T05:42:17.484Z,968.51
2019-03-20T05:43:17.463Z,968.53
2019-03-20T05:44:17.444Z,968.54
2019-03-20T05:45:17.424Z,968.54
2019-03-20T05:46:17.403Z,968.56
2019-03-20T05:47:17.384Z,968.56
2019-03-20T05:48:17.364Z,968.53
2019-03-20T05:49:17.344Z,968.54
2019-03-20T05:50:17.325Z,968.5
2019-03-20T05:51:17.310Z,968.49
2019-03-20T05:52:17.285Z,968.51
2019-03-20T05:53:17.266Z,968.57
2019-03-20T05:54:17.244Z,968.51
2019-03-20T05:55:17.227Z,968.53
2019-03-20T05:56:17.207Z,968.52
2019-03-20T05:57:17.186Z,968.55
2019-03-20T05:58:17.166Z,968.48
2019-03-20T05:59:17.147Z,968.49
2019-03-20T06:00:17.128Z,968.51
2019-03-20T06:01:17.110Z,968.54
2019-03-20T06:02:17.090Z,968.5
2019-03-20T06:03:17.069Z,968.5
2019-03-20T06:04:17.049Z,968.52
2019-03-20T06:05:17.028Z,968.54
2019-03-20T06:06:17.008Z,968.48
2019-03-20T06:07:21.317Z,968.54
2019-03-20T06:08:16.968Z,968.5
2019-03-20T06:09:16.950Z,968.54
2019-03-20T06:10:16.940Z,968.55
2019-03-20T06:11:16.910Z,968.53
2019-03-20T06:12:16.889Z,968.51
2019-03-20T06:13:16.870Z,968.54
2019-03-20T06:14:16.853Z,968.51
2019-03-20T06:15:16.831Z,968.56
2019-03-20T06:16:16.812Z,968.55
2019-03-20T06:17:16.792Z,968.51
2019-03-20T06:18:16.772Z,968.54
2019-03-20T06:19:16.753Z,968.54
2019-03-20T06:20:16.737Z,968.55
2019-03-20T06:21:16.714Z,968.59
2019-03-20T06:22:16.695Z,968.54
2019-03-20T06:23:16.683Z,968.59
2019-03-20T06:24:16.657Z,968.61
2019-03-20T06:25:16.665Z,968.59
2019-03-20T06:26:16.618Z,968.65
2019-03-20T06:27:16.598Z,968.67
2019-03-20T06:28:16.578Z,968.7
2019-03-20T06:29:16.560Z,968.74
2019-03-20T06:30:16.539Z,968.7
2019-03-20T06:31:18.752Z,968.76
2019-03-20T06:32:16.501Z,968.82
2019-03-20T06:33:16.481Z,968.84
2019-03-20T06:34:16.463Z,968.83
2019-03-20T06:35:16.445Z,968.88
2019-03-20T06:36:16.424Z,968.86
2019-03-20T06:37:16.404Z,968.89
2019-03-20T06:38:16.386Z,968.92
2019-03-20T06:39:16.367Z,968.95
2019-03-20T06:40:16.351Z,968.92
2019-03-20T06:41:16.330Z,968.96
2019-03-20T06:42:16.309Z,968.95
2019-03-20T06:43:16.290Z,969
2019-03-20T06:44:16.271Z,969.01
2019-03-20T06:45:16.256Z,968.97
2019-03-20T06:46:16.235Z,968.96
2019-03-20T06:47:16.214Z,969
2019-03-20T06:48:16.194Z,968.99
2019-03-20T06:49:16.177Z,969.01
2019-03-20T06:50:16.160Z,969.01
2019-03-20T06:51:16.140Z,969.04
2019-03-20T06:52:16.121Z,969.05
2019-03-20T06:53:16.103Z,969.02
2019-03-20T06:54:16.084Z,969
2019-03-20T06:55:16.074Z,968.98
2019-03-20T06:56:16.046Z,969.02
2019-03-20T06:57:16.027Z,969.02
2019-03-20T06:58:16.009Z,969.03
2019-03-20T06:59:15.990Z,969.03
2019-03-20T07:00:15.973Z,969.05
2019-03-20T07:01:15.954Z,969.12
2019-03-20T07:02:15.935Z,969.11
2019-03-20T07:03:15.918Z,969.1
2019-03-20T07:04:15.899Z,969.13
2019-03-20T07:05:15.880Z,969.12
2019-03-20T07:06:15.867Z,969.16
2019-03-20T07:07:15.842Z,969.19
2019-03-20T07:08:15.827Z,969.2
2019-03-20T07:09:15.812Z,969.2
2019-03-20T07:10:15.788Z,969.21
2019-03-20T07:11:15.770Z,969.18
2019-03-20T07:12:15.751Z,969.24
2019-03-20T07:13:15.735Z,969.19
2019-03-20T07:14:15.715Z,969.2
2019-03-20T07:15:15.698Z,969.21
2019-03-20T07:16:15.679Z,969.25
2019-03-20T07:17:15.661Z,969.26
2019-03-20T07:18:15.643Z,969.28
2019-03-20T07:19:15.625Z,969.28
2019-03-20T07:20:15.608Z,969.26
2019-03-20T07:21:15.589Z,969.29
2019-03-20T07:22:15.572Z,969.22
2019-03-20T07:23:15.554Z,969.24
2019-03-20T07:24:15.538Z,969.27
2019-03-20T07:25:15.517Z,969.28
2019-03-20T07:26:15.503Z,969.28
2019-03-20T07:27:15.482Z,969.31
2019-03-20T07:28:15.464Z,969.29
2019-03-20T07:29:15.447Z,969.33
2019-03-20T07:30:15.428Z,969.29
2019-03-20T07:31:16.012Z,969.33
2019-03-20T07:32:15.393Z,969.31
2019-03-20T07:33:15.376Z,969.29
2019-03-20T07:34:15.357Z,969.3
2019-03-20T07:35:15.340Z,969.29
2019-03-20T07:36:15.323Z,969.3
2019-03-20T07:37:15.305Z,969.3
2019-03-20T07:38:15.288Z,969.32
2019-03-20T07:39:15.270Z,969.37
2019-03-20T07:40:15.252Z,969.36
2019-03-20T07:41:15.234Z,969.4
2019-03-20T07:42:15.218Z,969.42
2019-03-20T07:43:15.203Z,969.41
2019-03-20T07:44:15.181Z,969.46
2019-03-20T07:45:15.170Z,969.43
2019-03-20T07:46:15.153Z,969.42
2019-03-20T07:47:15.130Z,969.41
2019-03-20T07:48:21.820Z,969.4
2019-03-20T07:49:15.095Z,969.41
2019-03-20T07:50:15.079Z,969.45
2019-03-20T07:51:15.061Z,969.46
2019-03-20T07:52:15.044Z,969.42
2019-03-20T07:53:15.095Z,969.44
2019-03-20T07:54:15.010Z,969.48
2019-03-20T07:55:14.994Z,969.51
2019-03-20T07:56:14.976Z,969.48
2019-03-20T07:57:14.964Z,969.42
2019-03-20T07:58:14.939Z,969.5
2019-03-20T07:59:14.923Z,969.46
2019-03-20T08:00:14.907Z,969.42
2019-03-20T08:01:14.891Z,969.48
2019-03-20T08:02:14.874Z,969.47
2019-03-20T08:03:14.861Z,969.51
2019-03-20T08:04:14.840Z,969.5
2019-03-20T08:05:14.823Z,969.51
2019-03-20T08:06:14.808Z,969.51
2019-03-20T08:07:14.790Z,969.5
2019-03-20T08:08:14.774Z,969.51
2019-03-20T08:09:14.778Z,969.48
2019-03-20T08:10:14.742Z,969.5
2019-03-20T08:11:14.726Z,969.48
2019-03-20T08:12:14.713Z,969.47
2019-03-20T08:13:14.690Z,969.46
2019-03-20T08:14:14.675Z,969.46
2019-03-20T08:15:14.659Z,969.43
2019-03-20T08:16:14.643Z,969.44
2019-03-20T08:17:14.625Z,969.44
2019-03-20T08:18:14.609Z,969.49
2019-03-20T08:19:14.593Z,969.52
2019-03-20T08:20:14.576Z,969.48
2019-03-20T08:21:14.562Z,969.48
2019-03-20T08:22:14.546Z,969.54
2019-03-20T08:23:14.528Z,969.52
2019-03-20T08:24:14.513Z,969.51
2019-03-20T08:25:14.497Z,969.58
2019-03-20T08:26:14.481Z,969.58
2019-03-20T08:27:14.466Z,969.58
2019-03-20T08:28:14.449Z,969.6
2019-03-20T08:29:14.435Z,969.6
2019-03-20T08:30:14.419Z,969.61
2019-03-20T08:31:14.403Z,969.59
2019-03-20T08:32:14.388Z,969.61
2019-03-20T08:33:14.372Z,969.62
2019-03-20T08:34:14.356Z,969.62
2019-03-20T08:35:14.341Z,969.62
2019-03-20T08:36:14.327Z,969.57
2019-03-20T08:37:14.311Z,969.56
2019-03-20T08:38:18.431Z,969.61
2019-03-20T08:39:14.280Z,969.63
2019-03-20T08:40:14.266Z,969.69
2019-03-20T08:41:14.251Z,969.67
2019-03-20T08:42:14.236Z,969.7
2019-03-20T08:43:14.220Z,969.7
2019-03-20T08:44:14.204Z,969.68
2019-03-20T08:45:14.194Z,969.68
2019-03-20T08:46:14.177Z,969.69
2019-03-20T08:47:14.160Z,969.69
2019-03-20T08:48:14.145Z,969.73
2019-03-20T08:49:14.130Z,969.78
2019-03-20T08:50:14.131Z,969.75
2019-03-20T08:51:14.100Z,969.81
2019-03-20T08:52:14.087Z,969.79
2019-03-20T08:53:14.070Z,969.79
2019-03-20T08:54:14.056Z,969.83
2019-03-20T08:55:14.041Z,969.81
2019-03-20T08:56:14.026Z,969.81
2019-03-20T08:57:14.011Z,969.83
2019-03-20T08:58:13.997Z,969.81
2019-03-20T08:59:13.982Z,969.83
2019-03-20T09:00:13.966Z,969.83
2019-03-20T09:01:13.953Z,969.88
2019-03-20T09:02:13.938Z,969.91
2019-03-20T09:03:13.925Z,969.88
2019-03-20T09:04:13.908Z,969.83
2019-03-20T09:05:13.895Z,969.88
2019-03-20T09:06:13.879Z,969.88
2019-03-20T09:07:13.864Z,969.87
2019-03-20T09:08:13.851Z,969.9
2019-03-20T09:09:13.837Z,969.87
2019-03-20T09:10:13.823Z,969.94
2019-03-20T09:11:13.808Z,969.97
2019-03-20T09:12:13.792Z,969.95
2019-03-20T09:13:13.822Z,969.94
2019-03-20T09:14:13.765Z,969.93
2019-03-20T09:15:13.749Z,969.93
2019-03-20T09:16:13.735Z,969.95
2019-03-20T09:17:13.721Z,969.96
2019-03-20T09:18:13.705Z,969.96
2019-03-20T09:19:13.691Z,969.95
2019-03-20T09:20:13.677Z,969.96
2019-03-20T09:21:13.666Z,969.99
2019-03-20T09:22:13.648Z,969.98
2019-03-20T09:23:13.634Z,969.98
2019-03-20T09:24:13.622Z,970.01
2019-03-20T09:25:13.607Z,970.02
2019-03-20T09:26:13.622Z,970.02
2019-03-20T09:27:13.576Z,970.04
2019-03-20T09:28:13.563Z,970.03
2019-03-20T09:29:18.365Z,970.06
2019-03-20T09:30:13.536Z,970.07
2019-03-20T09:31:13.519Z,970.1
2019-03-20T09:32:13.507Z,970.09
2019-03-20T09:33:13.489Z,970.1
2019-03-20T09:34:13.475Z,970.13
2019-03-20T09:35:13.462Z,970.1
2019-03-20T09:36:13.449Z,970.12
2019-03-20T09:37:13.435Z,970.13
2019-03-20T09:38:13.420Z,970.13
2019-03-20T09:39:13.557Z,970.13
2019-03-20T09:40:13.391Z,970.12
2019-03-20T09:41:13.377Z,970.15
2019-03-20T09:42:13.362Z,970.17
2019-03-20T09:43:13.352Z,970.14
2019-03-20T09:44:13.335Z,970.05
2019-03-20T09:45:13.321Z,970.09
2019-03-20T09:46:13.310Z,970.09
2019-03-20T09:47:13.292Z,970.01
2019-03-20T09:48:13.277Z,970.03
2019-03-20T09:49:13.263Z,970.08
2019-03-20T09:50:13.248Z,970.07
2019-03-20T09:51:13.234Z,970.08
2019-03-20T09:52:13.221Z,970.09
2019-03-20T09:53:13.208Z,970.12
2019-03-20T09:54:13.193Z,970.14
2019-03-20T09:55:13.178Z,970.1
2019-03-20T09:56:13.164Z,970.12
2019-03-20T09:57:13.152Z,970.1
2019-03-20T09:58:13.137Z,970.11
2019-03-20T09:59:13.122Z,970.13
2019-03-20T10:00:13.110Z,970.12
2019-03-20T10:01:13.096Z,970.15
2019-03-20T10:02:13.080Z,970.15
2019-03-20T10:03:13.072Z,970.14
2019-03-20T10:04:13.054Z,970.19
2019-03-20T10:05:13.041Z,970.17
2019-03-20T10:06:13.025Z,970.11
2019-03-20T10:07:13.012Z,970.19
2019-03-20T10:08:12.999Z,970.15
2019-03-20T10:09:12.984Z,970.16
2019-03-20T10:10:12.971Z,970.19
2019-03-20T10:11:12.958Z,970.17
2019-03-20T10:12:12.944Z,970.17
2019-03-20T10:13:12.929Z,970.16
2019-03-20T10:14:12.917Z,970.14
2019-03-20T10:15:12.902Z,970.12
2019-03-20T10:16:12.891Z,970.12
2019-03-20T10:17:12.875Z,970.14
2019-03-20T10:18:12.862Z,970.18
2019-03-20T10:19:12.847Z,970.13
2019-03-20T10:20:12.835Z,970.13
2019-03-20T10:21:12.821Z,970.13
2019-03-20T10:22:12.807Z,970.14
2019-03-20T10:23:12.799Z,970.14
2019-03-20T10:24:12.778Z,970.17
2019-03-20T10:25:12.773Z,970.18
2019-03-20T10:26:12.754Z,970.2
2019-03-20T10:27:12.739Z,970.23
2019-03-20T10:28:12.724Z,970.22
2019-03-20T10:29:12.711Z,970.2
2019-03-20T10:30:12.697Z,970.15
2019-03-20T10:31:12.684Z,970.15
2019-03-20T10:32:12.670Z,970.11
2019-03-20T10:33:12.659Z,970.14
2019-03-20T10:34:12.644Z,970.17
2019-03-20T10:35:12.630Z,970.18
2019-03-20T10:36:12.616Z,970.17
2019-03-20T10:37:12.603Z,970.16
2019-03-20T10:38:12.591Z,970.17
2019-03-20T10:39:12.659Z,970.15
2019-03-20T10:40:12.563Z,970.18
2019-03-20T10:41:12.551Z,970.18
2019-03-20T10:42:12.536Z,970.14
2019-03-20T10:43:12.530Z,970.17
2019-03-20T10:44:12.510Z,970.13
2019-03-20T10:45:12.496Z,970.1
2019-03-20T10:46:12.483Z,970.13
2019-03-20T10:47:12.471Z,970.13
2019-03-20T10:48:12.458Z,970.13
2019-03-20T10:49:12.443Z,970.07
2019-03-20T10:50:12.429Z,970.08
2019-03-20T10:51:12.416Z,970.08
2019-03-20T10:52:12.404Z,970.07
2019-03-20T10:53:12.401Z,970.12
2019-03-20T10:54:12.378Z,970.14
2019-03-20T10:55:12.365Z,970.08
2019-03-20T10:56:12.350Z,970.08
2019-03-20T10:57:12.339Z,970.07
2019-03-20T10:58:12.350Z,970.04
2019-03-20T10:59:12.308Z,970.06
2019-03-20T11:00:12.309Z,970.09
2019-03-20T11:01:12.283Z,970.07
2019-03-20T11:02:12.273Z,970.04
2019-03-20T11:03:12.256Z,970.09
2019-03-20T11:04:12.242Z,970.03
2019-03-20T11:05:12.229Z,970.02
2019-03-20T11:06:12.215Z,970.01
2019-03-20T11:07:12.204Z,970.02
2019-03-20T11:08:13.062Z,970.04
2019-03-20T11:09:17.978Z,970.02
2019-03-20T11:10:12.163Z,970.08
2019-03-20T11:11:12.161Z,970.07
2019-03-20T11:12:12.139Z,970.01
2019-03-20T11:13:12.125Z,970
2019-03-20T11:14:12.111Z,970.01
2019-03-20T11:15:12.098Z,970.03
2019-03-20T11:16:12.092Z,970.02
2019-03-20T11:17:12.072Z,970.03
2019-03-20T11:18:12.059Z,970.07
2019-03-20T11:19:12.046Z,970.1
2019-03-20T11:20:12.064Z,970.01
2019-03-20T11:21:12.020Z,969.97
2019-03-20T11:22:18.519Z,970
2019-03-20T11:23:11.993Z,969.99
2019-03-20T11:24:11.980Z,970.02
2019-03-20T11:25:11.968Z,970.02
2019-03-20T11:26:11.954Z,970.01
2019-03-20T11:27:11.941Z,970
2019-03-20T11:28:11.937Z,969.98
2019-03-20T11:29:11.917Z,970.01
2019-03-20T11:30:11.904Z,969.99
2019-03-20T11:31:11.911Z,970.02
2019-03-20T11:32:14.231Z,970.01
2019-03-20T11:33:11.864Z,969.98
2019-03-20T11:34:11.853Z,969.95
2019-03-20T11:35:11.837Z,969.94
2019-03-20T11:36:11.825Z,969.99
2019-03-20T11:37:11.856Z,969.96
2019-03-20T11:38:11.801Z,969.96
2019-03-20T11:39:11.786Z,969.95
2019-03-20T11:40:11.773Z,969.91
2019-03-20T11:41:11.766Z,969.87
2019-03-20T11:42:11.750Z,969.86
2019-03-20T11:43:11.735Z,969.87
2019-03-20T11:44:11.721Z,969.87
2019-03-20T11:45:11.709Z,969.84
2019-03-20T11:46:11.696Z,969.85
2019-03-20T11:47:11.684Z,969.85
2019-03-20T11:48:11.670Z,969.87
2019-03-20T11:49:11.658Z,969.85
2019-03-20T11:50:11.646Z,969.86
2019-03-20T11:51:11.634Z,969.86
2019-03-20T11:52:11.620Z,969.83
2019-03-20T11:53:11.611Z,969.9
2019-03-20T11:54:11.595Z,969.85
2019-03-20T11:55:11.581Z,969.81
2019-03-20T11:56:11.570Z,969.81
2019-03-20T11:57:11.556Z,969.76
2019-03-20T11:58:11.544Z,969.76
2019-03-20T11:59:11.531Z,969.76
2019-03-20T12:00:11.519Z,969.74
2019-03-20T12:01:11.506Z,969.72
2019-03-20T12:02:11.493Z,969.72
2019-03-20T12:03:11.485Z,969.68
2019-03-20T12:04:11.468Z,969.68
2019-03-20T12:05:11.455Z,969.72
2019-03-20T12:06:11.442Z,969.73
2019-03-20T12:07:11.431Z,969.73
2019-03-20T12:08:11.443Z,969.74
2019-03-20T12:09:11.406Z,969.69
2019-03-20T12:10:11.393Z,969.68
2019-03-20T12:11:11.380Z,969.65
2019-03-20T12:12:11.368Z,969.62
2019-03-20T12:13:11.355Z,969.6
2019-03-20T12:14:11.344Z,969.54
2019-03-20T12:15:11.331Z,969.48
2019-03-20T12:16:11.317Z,969.5
2019-03-20T12:17:11.305Z,969.45
2019-03-20T12:18:11.293Z,969.45
2019-03-20T12:19:11.280Z,969.46
2019-03-20T12:20:11.268Z,969.45
2019-03-20T12:21:11.255Z,969.48
2019-03-20T12:22:11.242Z,969.49
2019-03-20T12:23:11.231Z,969.5
2019-03-20T12:24:11.218Z,969.49
2019-03-20T12:25:11.205Z,969.49
2019-03-20T12:26:11.193Z,969.47
2019-03-20T12:27:15.254Z,969.49
2019-03-20T12:28:11.172Z,969.47
2019-03-20T12:29:11.160Z,969.48
2019-03-20T12:30:11.145Z,969.47
2019-03-20T12:31:11.131Z,969.46
2019-03-20T12:32:11.119Z,969.41
2019-03-20T12:33:11.109Z,969.41
2019-03-20T12:34:11.094Z,969.48
2019-03-20T12:35:11.082Z,969.44
2019-03-20T12:36:11.070Z,969.51
2019-03-20T12:37:11.057Z,969.48
2019-03-20T12:38:14.584Z,969.5
2019-03-20T12:39:11.031Z,969.46
2019-03-20T12:40:11.019Z,969.42
2019-03-20T12:41:11.008Z,969.46